sensor_id;sensor_type;location;lat;lon;timestamp;P1;durP1;ratioP1;P2;durP2;ratioP2
4244;SDS011;2136;48.502;9.194;2023-05-29T00:01:18;9.10;;;5.67;;
4244;SDS011;2136;48.502;9.194;2023-05-29T00:03:46;8.07;;;5.60;;
4244;SDS011;2136;48.502;9.194;2023-05-29T00:06:13;15.37;;;7.00;;
4244;SDS011;2136;48.502;9.194;2023-05-29T00:08:39;11.53;;;6.30;;
4244;SDS011;2136;48.502;9.194;2023-05-29T00:11:08;12.20;;;5.97;;
4244;SDS011;2136;48.502;9.194;2023-05-29T00:13:35;8.37;;;5.70;;
4244;SDS011;2136;48.502;9.194;2023-05-29T00:16:01;10.13;;;5.80;;
4244;SDS011;2136;48.502;9.194;2023-05-29T00:18:29;9.80;;;6.63;;
4244;SDS011;2136;48.502;9.194;2023-05-29T00:20:56;11.47;;;6.33;;
4244;SDS011;2136;48.502;9.194;2023-05-29T00:23:23;11.80;;;6.83;;
4244;SDS011;2136;48.502;9.194;2023-05-29T00:25:50;12.70;;;5.47;;
4244;SDS011;2136;48.502;9.194;2023-05-29T00:28:18;9.03;;;5.40;;
4244;SDS011;2136;48.502;9.194;2023-05-29T00:30:45;10.67;;;6.60;;
4244;SDS011;2136;48.502;9.194;2023-05-29T00:33:12;8.67;;;6.33;;
4244;SDS011;2136;48.502;9.194;2023-05-29T00:35:39;10.00;;;6.40;;
4244;SDS011;2136;48.502;9.194;2023-05-29T00:38:06;6.87;;;5.20;;
4244;SDS011;2136;48.502;9.194;2023-05-29T00:40:33;10.53;;;6.60;;
4244;SDS011;2136;48.502;9.194;2023-05-29T00:43:00;8.83;;;5.40;;
4244;SDS011;2136;48.502;9.194;2023-05-29T00:45:29;9.03;;;6.20;;
4244;SDS011;2136;48.502;9.194;2023-05-29T00:47:56;9.40;;;6.27;;
4244;SDS011;2136;48.502;9.194;2023-05-29T00:50:24;15.77;;;6.13;;
4244;SDS011;2136;48.502;9.194;2023-05-29T00:52:52;8.10;;;6.00;;
4244;SDS011;2136;48.502;9.194;2023-05-29T00:55:19;8.50;;;5.83;;
4244;SDS011;2136;48.502;9.194;2023-05-29T00:57:46;12.67;;;5.73;;
4244;SDS011;2136;48.502;9.194;2023-05-29T01:00:14;7.87;;;5.57;;
4244;SDS011;2136;48.502;9.194;2023-05-29T01:02:49;10.47;;;6.20;;
4244;SDS011;2136;48.502;9.194;2023-05-29T01:05:17;10.43;;;5.80;;
4244;SDS011;2136;48.502;9.194;2023-05-29T01:07:45;7.67;;;5.30;;
4244;SDS011;2136;48.502;9.194;2023-05-29T01:10:12;8.07;;;6.20;;
4244;SDS011;2136;48.502;9.194;2023-05-29T01:12:40;7.87;;;5.10;;
4244;SDS011;2136;48.502;9.194;2023-05-29T01:15:14;10.10;;;5.23;;
4244;SDS011;2136;48.502;9.194;2023-05-29T01:17:54;6.93;;;5.13;;
4244;SDS011;2136;48.502;9.194;2023-05-29T01:20:34;8.27;;;5.77;;
4244;SDS011;2136;48.502;9.194;2023-05-29T01:23:07;9.67;;;6.17;;
4244;SDS011;2136;48.502;9.194;2023-05-29T01:25:56;13.70;;;5.67;;
4244;SDS011;2136;48.502;9.194;2023-05-29T01:28:37;8.50;;;5.27;;
4244;SDS011;2136;48.502;9.194;2023-05-29T01:31:07;11.30;;;5.43;;
4244;SDS011;2136;48.502;9.194;2023-05-29T01:33:38;13.43;;;6.70;;
4244;SDS011;2136;48.502;9.194;2023-05-29T01:36:06;10.57;;;5.60;;
4244;SDS011;2136;48.502;9.194;2023-05-29T01:38:34;11.07;;;5.83;;
4244;SDS011;2136;48.502;9.194;2023-05-29T01:41:01;12.13;;;6.03;;
4244;SDS011;2136;48.502;9.194;2023-05-29T01:43:29;11.23;;;5.37;;
4244;SDS011;2136;48.502;9.194;2023-05-29T01:45:58;9.57;;;5.03;;
4244;SDS011;2136;48.502;9.194;2023-05-29T01:48:26;8.63;;;5.20;;
4244;SDS011;2136;48.502;9.194;2023-05-29T01:50:54;12.20;;;6.13;;
4244;SDS011;2136;48.502;9.194;2023-05-29T01:53:21;10.93;;;6.63;;
4244;SDS011;2136;48.502;9.194;2023-05-29T01:55:48;10.40;;;5.70;;
4244;SDS011;2136;48.502;9.194;2023-05-29T01:58:16;9.73;;;5.60;;
4244;SDS011;2136;48.502;9.194;2023-05-29T02:00:45;10.63;;;5.90;;
4244;SDS011;2136;48.502;9.194;2023-05-29T02:03:13;9.60;;;6.00;;
4244;SDS011;2136;48.502;9.194;2023-05-29T02:05:40;9.43;;;5.80;;
4244;SDS011;2136;48.502;9.194;2023-05-29T02:08:07;9.33;;;6.07;;
4244;SDS011;2136;48.502;9.194;2023-05-29T02:10:34;9.23;;;6.67;;
4244;SDS011;2136;48.502;9.194;2023-05-29T02:13:01;12.87;;;6.00;;
4244;SDS011;2136;48.502;9.194;2023-05-29T02:15:27;9.87;;;6.43;;
4244;SDS011;2136;48.502;9.194;2023-05-29T02:17:55;9.80;;;5.70;;
4244;SDS011;2136;48.502;9.194;2023-05-29T02:20:23;9.50;;;6.30;;
4244;SDS011;2136;48.502;9.194;2023-05-29T02:22:50;13.17;;;7.17;;
4244;SDS011;2136;48.502;9.194;2023-05-29T02:25:17;10.03;;;6.70;;
4244;SDS011;2136;48.502;9.194;2023-05-29T02:27:44;9.70;;;6.67;;
4244;SDS011;2136;48.502;9.194;2023-05-29T02:30:13;10.97;;;6.10;;
4244;SDS011;2136;48.502;9.194;2023-05-29T02:32:57;12.73;;;6.00;;
4244;SDS011;2136;48.502;9.194;2023-05-29T02:35:25;9.77;;;5.20;;
4244;SDS011;2136;48.502;9.194;2023-05-29T02:37:52;11.30;;;5.73;;
4244;SDS011;2136;48.502;9.194;2023-05-29T02:40:20;12.27;;;6.13;;
4244;SDS011;2136;48.502;9.194;2023-05-29T02:42:48;10.57;;;5.80;;
4244;SDS011;2136;48.502;9.194;2023-05-29T02:45:15;9.70;;;7.20;;
4244;SDS011;2136;48.502;9.194;2023-05-29T02:47:42;8.57;;;5.40;;
4244;SDS011;2136;48.502;9.194;2023-05-29T02:50:09;6.93;;;5.83;;
4244;SDS011;2136;48.502;9.194;2023-05-29T02:52:40;12.50;;;6.37;;
4244;SDS011;2136;48.502;9.194;2023-05-29T02:55:07;6.40;;;5.03;;
4244;SDS011;2136;48.502;9.194;2023-05-29T02:57:35;9.00;;;5.50;;
4244;SDS011;2136;48.502;9.194;2023-05-29T03:00:02;8.03;;;6.00;;
4244;SDS011;2136;48.502;9.194;2023-05-29T03:02:32;9.53;;;4.77;;
4244;SDS011;2136;48.502;9.194;2023-05-29T03:04:59;6.67;;;5.03;;
4244;SDS011;2136;48.502;9.194;2023-05-29T03:07:27;7.77;;;5.50;;
4244;SDS011;2136;48.502;9.194;2023-05-29T03:09:55;9.77;;;6.43;;
4244;SDS011;2136;48.502;9.194;2023-05-29T03:12:23;7.63;;;5.40;;
4244;SDS011;2136;48.502;9.194;2023-05-29T03:14:50;9.60;;;5.20;;
4244;SDS011;2136;48.502;9.194;2023-05-29T03:17:17;15.73;;;5.70;;
4244;SDS011;2136;48.502;9.194;2023-05-29T03:19:45;8.60;;;5.87;;
4244;SDS011;2136;48.502;9.194;2023-05-29T03:22:12;10.93;;;5.57;;
4244;SDS011;2136;48.502;9.194;2023-05-29T03:24:39;8.23;;;6.27;;
4244;SDS011;2136;48.502;9.194;2023-05-29T03:27:07;9.53;;;6.40;;
4244;SDS011;2136;48.502;9.194;2023-05-29T03:29:35;9.57;;;5.93;;
4244;SDS011;2136;48.502;9.194;2023-05-29T03:32:02;13.70;;;5.53;;
4244;SDS011;2136;48.502;9.194;2023-05-29T03:37:05;13.53;;;5.23;;
4244;SDS011;2136;48.502;9.194;2023-05-29T03:39:32;9.27;;;5.57;;
4244;SDS011;2136;48.502;9.194;2023-05-29T03:41:59;10.70;;;6.27;;
4244;SDS011;2136;48.502;9.194;2023-05-29T03:44:29;9.57;;;5.90;;
4244;SDS011;2136;48.502;9.194;2023-05-29T03:46:56;10.33;;;6.03;;
4244;SDS011;2136;48.502;9.194;2023-05-29T03:49:23;10.10;;;5.70;;
4244;SDS011;2136;48.502;9.194;2023-05-29T03:51:51;15.27;;;6.27;;
4244;SDS011;2136;48.502;9.194;2023-05-29T03:54:18;8.77;;;5.90;;
4244;SDS011;2136;48.502;9.194;2023-05-29T03:56:45;9.20;;;6.30;;
4244;SDS011;2136;48.502;9.194;2023-05-29T03:59:12;14.10;;;6.27;;
4244;SDS011;2136;48.502;9.194;2023-05-29T04:01:41;12.10;;;6.13;;
4244;SDS011;2136;48.502;9.194;2023-05-29T04:04:08;13.30;;;6.30;;
4244;SDS011;2136;48.502;9.194;2023-05-29T04:06:35;8.67;;;6.13;;
4244;SDS011;2136;48.502;9.194;2023-05-29T04:09:03;11.13;;;5.50;;
4244;SDS011;2136;48.502;9.194;2023-05-29T04:11:31;8.40;;;6.23;;
4244;SDS011;2136;48.502;9.194;2023-05-29T04:13:59;11.20;;;5.73;;
4244;SDS011;2136;48.502;9.194;2023-05-29T04:16:26;8.60;;;5.87;;
4244;SDS011;2136;48.502;9.194;2023-05-29T04:18:55;7.43;;;5.93;;
4244;SDS011;2136;48.502;9.194;2023-05-29T04:21:22;15.47;;;6.57;;
4244;SDS011;2136;48.502;9.194;2023-05-29T04:23:49;14.23;;;6.10;;
4244;SDS011;2136;48.502;9.194;2023-05-29T04:26:16;14.87;;;6.17;;
4244;SDS011;2136;48.502;9.194;2023-05-29T04:28:43;14.17;;;5.90;;
4244;SDS011;2136;48.502;9.194;2023-05-29T04:31:10;8.70;;;5.33;;
4244;SDS011;2136;48.502;9.194;2023-05-29T04:33:39;10.70;;;6.33;;
4244;SDS011;2136;48.502;9.194;2023-05-29T04:36:07;9.00;;;5.50;;
4244;SDS011;2136;48.502;9.194;2023-05-29T04:38:36;13.20;;;5.73;;
4244;SDS011;2136;48.502;9.194;2023-05-29T04:41:03;12.07;;;6.30;;
4244;SDS011;2136;48.502;9.194;2023-05-29T04:43:29;6.57;;;5.40;;
4244;SDS011;2136;48.502;9.194;2023-05-29T04:45:56;11.67;;;6.40;;
4244;SDS011;2136;48.502;9.194;2023-05-29T04:48:23;9.63;;;5.30;;
4244;SDS011;2136;48.502;9.194;2023-05-29T04:50:51;7.90;;;5.60;;
4244;SDS011;2136;48.502;9.194;2023-05-29T04:53:20;11.97;;;6.00;;
4244;SDS011;2136;48.502;9.194;2023-05-29T04:55:48;14.83;;;5.97;;
4244;SDS011;2136;48.502;9.194;2023-05-29T04:58:16;11.20;;;6.07;;
4244;SDS011;2136;48.502;9.194;2023-05-29T05:00:42;9.77;;;6.47;;
4244;SDS011;2136;48.502;9.194;2023-05-29T05:03:09;9.70;;;5.80;;
4244;SDS011;2136;48.502;9.194;2023-05-29T05:05:36;8.33;;;5.20;;
4244;SDS011;2136;48.502;9.194;2023-05-29T05:08:03;9.23;;;5.60;;
4244;SDS011;2136;48.502;9.194;2023-05-29T05:10:32;9.77;;;5.90;;
4244;SDS011;2136;48.502;9.194;2023-05-29T05:12:58;8.67;;;5.60;;
4244;SDS011;2136;48.502;9.194;2023-05-29T05:15:27;16.80;;;6.53;;
4244;SDS011;2136;48.502;9.194;2023-05-29T05:17:54;11.07;;;5.67;;
4244;SDS011;2136;48.502;9.194;2023-05-29T05:20:21;10.83;;;5.90;;
4244;SDS011;2136;48.502;9.194;2023-05-29T05:22:48;8.67;;;5.90;;
4244;SDS011;2136;48.502;9.194;2023-05-29T05:25:14;13.00;;;6.50;;
4244;SDS011;2136;48.502;9.194;2023-05-29T05:27:43;8.40;;;6.13;;
4244;SDS011;2136;48.502;9.194;2023-05-29T05:30:10;11.00;;;5.87;;
4244;SDS011;2136;48.502;9.194;2023-05-29T05:32:38;16.77;;;8.03;;
4244;SDS011;2136;48.502;9.194;2023-05-29T05:35:05;8.83;;;6.60;;
4244;SDS011;2136;48.502;9.194;2023-05-29T05:37:33;10.77;;;6.67;;
4244;SDS011;2136;48.502;9.194;2023-05-29T05:40:00;12.33;;;6.10;;
4244;SDS011;2136;48.502;9.194;2023-05-29T05:42:28;9.60;;;5.77;;
4244;SDS011;2136;48.502;9.194;2023-05-29T05:44:57;9.47;;;5.83;;
4244;SDS011;2136;48.502;9.194;2023-05-29T05:47:24;11.27;;;6.57;;
4244;SDS011;2136;48.502;9.194;2023-05-29T05:49:52;9.10;;;5.77;;
4244;SDS011;2136;48.502;9.194;2023-05-29T05:52:19;14.23;;;6.77;;
4244;SDS011;2136;48.502;9.194;2023-05-29T05:54:46;7.33;;;5.43;;
4244;SDS011;2136;48.502;9.194;2023-05-29T05:57:13;11.53;;;5.60;;
4244;SDS011;2136;48.502;9.194;2023-05-29T05:59:42;11.63;;;6.27;;
4244;SDS011;2136;48.502;9.194;2023-05-29T06:02:11;8.67;;;5.53;;
4244;SDS011;2136;48.502;9.194;2023-05-29T06:04:37;16.07;;;6.37;;
4244;SDS011;2136;48.502;9.194;2023-05-29T06:07:05;11.43;;;5.83;;
4244;SDS011;2136;48.502;9.194;2023-05-29T06:09:32;10.73;;;6.40;;
4244;SDS011;2136;48.502;9.194;2023-05-29T06:11:59;10.23;;;6.00;;
4244;SDS011;2136;48.502;9.194;2023-05-29T06:14:26;9.93;;;6.17;;
4244;SDS011;2136;48.502;9.194;2023-05-29T06:16:53;10.80;;;6.43;;
4244;SDS011;2136;48.502;9.194;2023-05-29T06:19:22;13.90;;;5.87;;
4244;SDS011;2136;48.502;9.194;2023-05-29T06:21:49;9.00;;;6.50;;
4244;SDS011;2136;48.502;9.194;2023-05-29T06:24:16;14.93;;;6.20;;
4244;SDS011;2136;48.502;9.194;2023-05-29T06:26:46;12.93;;;6.70;;
4244;SDS011;2136;48.502;9.194;2023-05-29T06:29:13;13.27;;;6.17;;
4244;SDS011;2136;48.502;9.194;2023-05-29T06:31:40;8.30;;;6.00;;
4244;SDS011;2136;48.502;9.194;2023-05-29T06:34:07;12.70;;;6.73;;
4244;SDS011;2136;48.502;9.194;2023-05-29T06:36:35;18.90;;;5.87;;
4244;SDS011;2136;48.502;9.194;2023-05-29T06:39:03;11.10;;;5.50;;
4244;SDS011;2136;48.502;9.194;2023-05-29T06:41:30;9.23;;;6.30;;
4244;SDS011;2136;48.502;9.194;2023-05-29T06:43:57;8.40;;;6.33;;
4244;SDS011;2136;48.502;9.194;2023-05-29T06:46:24;17.07;;;8.90;;
4244;SDS011;2136;48.502;9.194;2023-05-29T06:48:52;13.80;;;6.00;;
4244;SDS011;2136;48.502;9.194;2023-05-29T06:51:19;14.15;;;7.10;;
4244;SDS011;2136;48.502;9.194;2023-05-29T06:53:47;10.23;;;5.57;;
4244;SDS011;2136;48.502;9.194;2023-05-29T06:56:14;15.97;;;6.10;;
4244;SDS011;2136;48.502;9.194;2023-05-29T06:58:41;6.87;;;5.50;;
4244;SDS011;2136;48.502;9.194;2023-05-29T07:01:10;9.97;;;5.57;;
4244;SDS011;2136;48.502;9.194;2023-05-29T07:03:37;8.50;;;6.00;;
4244;SDS011;2136;48.502;9.194;2023-05-29T07:06:04;12.50;;;6.33;;
4244;SDS011;2136;48.502;9.194;2023-05-29T07:08:32;12.30;;;6.60;;
4244;SDS011;2136;48.502;9.194;2023-05-29T07:11:00;14.97;;;5.73;;
4244;SDS011;2136;48.502;9.194;2023-05-29T07:13:28;6.73;;;5.57;;
4244;SDS011;2136;48.502;9.194;2023-05-29T07:15:55;10.60;;;5.23;;
4244;SDS011;2136;48.502;9.194;2023-05-29T07:18:22;8.43;;;4.73;;
4244;SDS011;2136;48.502;9.194;2023-05-29T07:20:49;11.05;;;5.55;;
4244;SDS011;2136;48.502;9.194;2023-05-29T07:23:16;13.37;;;6.17;;
4244;SDS011;2136;48.502;9.194;2023-05-29T07:25:43;12.33;;;6.43;;
4244;SDS011;2136;48.502;9.194;2023-05-29T07:28:11;8.93;;;5.60;;
4244;SDS011;2136;48.502;9.194;2023-05-29T07:30:38;6.87;;;4.93;;
4244;SDS011;2136;48.502;9.194;2023-05-29T07:33:05;10.73;;;6.10;;
4244;SDS011;2136;48.502;9.194;2023-05-29T07:35:32;8.63;;;5.10;;
4244;SDS011;2136;48.502;9.194;2023-05-29T07:37:58;12.23;;;5.30;;
4244;SDS011;2136;48.502;9.194;2023-05-29T07:40:25;12.83;;;6.80;;
4244;SDS011;2136;48.502;9.194;2023-05-29T07:42:52;12.40;;;6.50;;
4244;SDS011;2136;48.502;9.194;2023-05-29T07:45:20;8.50;;;5.43;;
4244;SDS011;2136;48.502;9.194;2023-05-29T07:47:48;14.93;;;5.43;;
4244;SDS011;2136;48.502;9.194;2023-05-29T07:50:15;12.13;;;5.43;;
4244;SDS011;2136;48.502;9.194;2023-05-29T07:52:42;6.87;;;5.00;;
4244;SDS011;2136;48.502;9.194;2023-05-29T07:55:12;7.10;;;5.03;;
4244;SDS011;2136;48.502;9.194;2023-05-29T07:57:39;6.80;;;5.33;;
4244;SDS011;2136;48.502;9.194;2023-05-29T08:00:06;9.57;;;5.77;;
4244;SDS011;2136;48.502;9.194;2023-05-29T08:02:35;7.57;;;4.80;;
4244;SDS011;2136;48.502;9.194;2023-05-29T08:05:03;9.30;;;5.13;;
4244;SDS011;2136;48.502;9.194;2023-05-29T08:07:30;9.50;;;5.47;;
4244;SDS011;2136;48.502;9.194;2023-05-29T08:09:57;13.70;;;4.87;;
4244;SDS011;2136;48.502;9.194;2023-05-29T08:12:24;10.20;;;5.40;;
4244;SDS011;2136;48.502;9.194;2023-05-29T08:14:51;7.33;;;4.67;;
4244;SDS011;2136;48.502;9.194;2023-05-29T08:17:18;5.87;;;4.33;;
4244;SDS011;2136;48.502;9.194;2023-05-29T08:19:46;8.07;;;5.27;;
4244;SDS011;2136;48.502;9.194;2023-05-29T08:22:13;9.60;;;5.20;;
4244;SDS011;2136;48.502;9.194;2023-05-29T08:24:40;8.63;;;4.83;;
4244;SDS011;2136;48.502;9.194;2023-05-29T08:27:07;8.60;;;5.23;;
4244;SDS011;2136;48.502;9.194;2023-05-29T08:29:34;15.23;;;5.70;;
4244;SDS011;2136;48.502;9.194;2023-05-29T08:32:03;10.07;;;5.07;;
4244;SDS011;2136;48.502;9.194;2023-05-29T08:34:30;9.17;;;4.77;;
4244;SDS011;2136;48.502;9.194;2023-05-29T08:36:58;7.60;;;4.60;;
4244;SDS011;2136;48.502;9.194;2023-05-29T08:39:25;11.23;;;5.07;;
4244;SDS011;2136;48.502;9.194;2023-05-29T08:41:55;10.50;;;5.27;;
4244;SDS011;2136;48.502;9.194;2023-05-29T08:44:29;13.83;;;4.57;;
4244;SDS011;2136;48.502;9.194;2023-05-29T08:46:57;9.00;;;4.80;;
4244;SDS011;2136;48.502;9.194;2023-05-29T08:49:28;8.17;;;5.07;;
4244;SDS011;2136;48.502;9.194;2023-05-29T08:52:05;6.87;;;4.43;;
4244;SDS011;2136;48.502;9.194;2023-05-29T08:54:36;11.40;;;4.83;;
4244;SDS011;2136;48.502;9.194;2023-05-29T08:57:03;13.33;;;4.90;;
4244;SDS011;2136;48.502;9.194;2023-05-29T08:59:30;8.87;;;4.33;;
4244;SDS011;2136;48.502;9.194;2023-05-29T09:01:59;9.43;;;5.13;;
4244;SDS011;2136;48.502;9.194;2023-05-29T09:04:27;8.50;;;5.60;;
4244;SDS011;2136;48.502;9.194;2023-05-29T09:06:55;7.37;;;5.33;;
4244;SDS011;2136;48.502;9.194;2023-05-29T09:09:25;7.70;;;4.37;;
4244;SDS011;2136;48.502;9.194;2023-05-29T09:11:52;11.50;;;5.70;;
4244;SDS011;2136;48.502;9.194;2023-05-29T09:14:31;8.30;;;5.00;;
4244;SDS011;2136;48.502;9.194;2023-05-29T09:17:00;7.47;;;4.80;;
4244;SDS011;2136;48.502;9.194;2023-05-29T09:19:27;8.77;;;5.00;;
4244;SDS011;2136;48.502;9.194;2023-05-29T09:21:59;9.17;;;4.97;;
4244;SDS011;2136;48.502;9.194;2023-05-29T09:24:28;10.70;;;5.00;;
4244;SDS011;2136;48.502;9.194;2023-05-29T09:26:56;9.20;;;4.83;;
4244;SDS011;2136;48.502;9.194;2023-05-29T09:29:24;8.60;;;4.83;;
4244;SDS011;2136;48.502;9.194;2023-05-29T09:31:51;5.87;;;4.53;;
4244;SDS011;2136;48.502;9.194;2023-05-29T09:34:18;9.83;;;5.63;;
4244;SDS011;2136;48.502;9.194;2023-05-29T09:36:45;10.97;;;5.37;;
4244;SDS011;2136;48.502;9.194;2023-05-29T09:39:12;8.43;;;4.33;;
4244;SDS011;2136;48.502;9.194;2023-05-29T09:41:42;7.70;;;4.80;;
4244;SDS011;2136;48.502;9.194;2023-05-29T09:44:11;6.53;;;3.90;;
4244;SDS011;2136;48.502;9.194;2023-05-29T09:46:39;7.80;;;5.40;;
4244;SDS011;2136;48.502;9.194;2023-05-29T09:49:08;8.00;;;4.03;;
4244;SDS011;2136;48.502;9.194;2023-05-29T09:51:37;5.50;;;4.77;;
4244;SDS011;2136;48.502;9.194;2023-05-29T09:54:14;4.80;;;4.30;;
4244;SDS011;2136;48.502;9.194;2023-05-29T09:56:44;8.40;;;4.97;;
4244;SDS011;2136;48.502;9.194;2023-05-29T09:59:11;4.57;;;3.90;;
4244;SDS011;2136;48.502;9.194;2023-05-29T10:01:39;5.83;;;4.67;;
4244;SDS011;2136;48.502;9.194;2023-05-29T10:04:09;14.43;;;4.70;;
4244;SDS011;2136;48.502;9.194;2023-05-29T10:06:36;6.50;;;4.70;;
4244;SDS011;2136;48.502;9.194;2023-05-29T10:09:05;10.47;;;4.30;;
4244;SDS011;2136;48.502;9.194;2023-05-29T10:11:35;8.10;;;4.60;;
4244;SDS011;2136;48.502;9.194;2023-05-29T10:14:05;7.90;;;4.33;;
4244;SDS011;2136;48.502;9.194;2023-05-29T10:16:33;10.70;;;4.53;;
4244;SDS011;2136;48.502;9.194;2023-05-29T10:19:03;8.47;;;4.37;;
4244;SDS011;2136;48.502;9.194;2023-05-29T10:21:33;7.10;;;4.37;;
4244;SDS011;2136;48.502;9.194;2023-05-29T10:24:04;7.47;;;3.53;;
4244;SDS011;2136;48.502;9.194;2023-05-29T10:26:34;7.70;;;4.90;;
4244;SDS011;2136;48.502;9.194;2023-05-29T10:29:03;5.13;;;3.87;;
4244;SDS011;2136;48.502;9.194;2023-05-29T10:31:38;6.57;;;4.07;;
4244;SDS011;2136;48.502;9.194;2023-05-29T10:34:14;5.10;;;4.23;;
4244;SDS011;2136;48.502;9.194;2023-05-29T10:36:52;8.87;;;4.10;;
4244;SDS011;2136;48.502;9.194;2023-05-29T10:39:26;5.80;;;4.47;;
4244;SDS011;2136;48.502;9.194;2023-05-29T10:41:53;4.73;;;4.10;;
4244;SDS011;2136;48.502;9.194;2023-05-29T10:47:22;9.53;;;4.93;;
4244;SDS011;2136;48.502;9.194;2023-05-29T10:49:49;6.13;;;4.07;;
4244;SDS011;2136;48.502;9.194;2023-05-29T10:52:18;4.80;;;3.90;;
4244;SDS011;2136;48.502;9.194;2023-05-29T10:54:50;4.77;;;4.00;;
4244;SDS011;2136;48.502;9.194;2023-05-29T10:57:20;5.10;;;4.37;;
4244;SDS011;2136;48.502;9.194;2023-05-29T10:59:48;6.30;;;3.87;;
4244;SDS011;2136;48.502;9.194;2023-05-29T11:02:24;4.27;;;3.87;;
4244;SDS011;2136;48.502;9.194;2023-05-29T11:05:03;10.53;;;4.07;;
4244;SDS011;2136;48.502;9.194;2023-05-29T11:07:32;4.90;;;3.50;;
4244;SDS011;2136;48.502;9.194;2023-05-29T11:10:10;6.90;;;3.70;;
4244;SDS011;2136;48.502;9.194;2023-05-29T11:15:25;4.63;;;3.37;;
4244;SDS011;2136;48.502;9.194;2023-05-29T11:17:52;5.60;;;3.87;;
4244;SDS011;2136;48.502;9.194;2023-05-29T11:20:28;4.80;;;3.80;;
4244;SDS011;2136;48.502;9.194;2023-05-29T11:23:03;8.47;;;4.30;;
4244;SDS011;2136;48.502;9.194;2023-05-29T11:25:33;5.30;;;3.63;;
4244;SDS011;2136;48.502;9.194;2023-05-29T11:28:02;8.47;;;4.00;;
4244;SDS011;2136;48.502;9.194;2023-05-29T11:30:41;4.50;;;3.30;;
4244;SDS011;2136;48.502;9.194;2023-05-29T11:33:09;4.80;;;3.23;;
4244;SDS011;2136;48.502;9.194;2023-05-29T11:35:42;5.80;;;3.80;;
4244;SDS011;2136;48.502;9.194;2023-05-29T11:38:10;3.53;;;3.30;;
4244;SDS011;2136;48.502;9.194;2023-05-29T11:40:36;3.87;;;3.50;;
4244;SDS011;2136;48.502;9.194;2023-05-29T11:43:03;3.83;;;3.53;;
4244;SDS011;2136;48.502;9.194;2023-05-29T11:45:32;3.40;;;3.10;;
4244;SDS011;2136;48.502;9.194;2023-05-29T11:48:02;5.20;;;3.80;;
4244;SDS011;2136;48.502;9.194;2023-05-29T11:50:29;5.70;;;3.47;;
4244;SDS011;2136;48.502;9.194;2023-05-29T11:52:58;5.40;;;3.40;;
4244;SDS011;2136;48.502;9.194;2023-05-29T11:55:26;3.83;;;3.43;;
4244;SDS011;2136;48.502;9.194;2023-05-29T11:57:56;7.17;;;3.87;;
4244;SDS011;2136;48.502;9.194;2023-05-29T12:00:23;4.30;;;3.53;;
4244;SDS011;2136;48.502;9.194;2023-05-29T12:02:51;6.53;;;3.97;;
4244;SDS011;2136;48.502;9.194;2023-05-29T12:05:19;5.97;;;3.37;;
4244;SDS011;2136;48.502;9.194;2023-05-29T12:07:47;4.67;;;3.40;;
4244;SDS011;2136;48.502;9.194;2023-05-29T12:10:15;6.97;;;3.97;;
4244;SDS011;2136;48.502;9.194;2023-05-29T12:12:46;4.17;;;3.30;;
4244;SDS011;2136;48.502;9.194;2023-05-29T12:15:14;6.40;;;3.70;;
4244;SDS011;2136;48.502;9.194;2023-05-29T12:17:42;4.53;;;3.67;;
4244;SDS011;2136;48.502;9.194;2023-05-29T12:20:10;4.03;;;3.63;;
4244;SDS011;2136;48.502;9.194;2023-05-29T12:22:40;4.43;;;3.70;;
4244;SDS011;2136;48.502;9.194;2023-05-29T12:25:09;4.27;;;3.77;;
4244;SDS011;2136;48.502;9.194;2023-05-29T12:27:37;4.33;;;3.87;;
4244;SDS011;2136;48.502;9.194;2023-05-29T12:30:19;3.20;;;2.80;;
4244;SDS011;2136;48.502;9.194;2023-05-29T12:32:47;5.47;;;2.93;;
4244;SDS011;2136;48.502;9.194;2023-05-29T12:35:17;4.17;;;2.87;;
4244;SDS011;2136;48.502;9.194;2023-05-29T12:37:47;5.33;;;3.50;;
4244;SDS011;2136;48.502;9.194;2023-05-29T12:40:15;5.70;;;3.70;;
4244;SDS011;2136;48.502;9.194;2023-05-29T12:42:43;3.40;;;3.10;;
4244;SDS011;2136;48.502;9.194;2023-05-29T12:45:10;3.77;;;3.47;;
4244;SDS011;2136;48.502;9.194;2023-05-29T12:47:38;5.47;;;3.70;;
4244;SDS011;2136;48.502;9.194;2023-05-29T12:50:24;4.30;;;3.90;;
4244;SDS011;2136;48.502;9.194;2023-05-29T12:53:00;4.80;;;4.13;;
4244;SDS011;2136;48.502;9.194;2023-05-29T12:55:28;3.57;;;3.27;;
4244;SDS011;2136;48.502;9.194;2023-05-29T12:57:58;3.73;;;2.87;;
4244;SDS011;2136;48.502;9.194;2023-05-29T13:00:25;4.87;;;3.60;;
4244;SDS011;2136;48.502;9.194;2023-05-29T13:02:52;3.40;;;3.10;;
4244;SDS011;2136;48.502;9.194;2023-05-29T13:05:19;4.77;;;4.00;;
4244;SDS011;2136;48.502;9.194;2023-05-29T13:07:48;2.93;;;2.73;;
4244;SDS011;2136;48.502;9.194;2023-05-29T13:10:16;4.27;;;3.43;;
4244;SDS011;2136;48.502;9.194;2023-05-29T13:12:43;8.20;;;2.90;;
4244;SDS011;2136;48.502;9.194;2023-05-29T13:15:13;3.33;;;2.73;;
4244;SDS011;2136;48.502;9.194;2023-05-29T13:17:40;3.90;;;3.50;;
4244;SDS011;2136;48.502;9.194;2023-05-29T13:20:09;4.10;;;3.17;;
4244;SDS011;2136;48.502;9.194;2023-05-29T13:22:36;4.07;;;3.30;;
4244;SDS011;2136;48.502;9.194;2023-05-29T13:25:04;4.40;;;3.00;;
4244;SDS011;2136;48.502;9.194;2023-05-29T13:27:35;6.07;;;3.77;;
4244;SDS011;2136;48.502;9.194;2023-05-29T13:30:03;4.03;;;3.07;;
4244;SDS011;2136;48.502;9.194;2023-05-29T13:32:31;5.03;;;3.63;;
4244;SDS011;2136;48.502;9.194;2023-05-29T13:34:58;6.93;;;3.67;;
4244;SDS011;2136;48.502;9.194;2023-05-29T13:37:25;4.57;;;3.50;;
4244;SDS011;2136;48.502;9.194;2023-05-29T13:39:53;5.80;;;3.93;;
4244;SDS011;2136;48.502;9.194;2023-05-29T13:42:20;3.83;;;3.17;;
4244;SDS011;2136;48.502;9.194;2023-05-29T13:44:49;4.27;;;3.23;;
4244;SDS011;2136;48.502;9.194;2023-05-29T13:47:16;3.23;;;2.93;;
4244;SDS011;2136;48.502;9.194;2023-05-29T13:49:43;3.90;;;3.60;;
4244;SDS011;2136;48.502;9.194;2023-05-29T13:52:10;4.63;;;3.60;;
4244;SDS011;2136;48.502;9.194;2023-05-29T13:54:38;5.77;;;4.03;;
4244;SDS011;2136;48.502;9.194;2023-05-29T13:57:05;9.30;;;2.93;;
4244;SDS011;2136;48.502;9.194;2023-05-29T13:59:33;4.30;;;3.07;;
4244;SDS011;2136;48.502;9.194;2023-05-29T14:02:02;4.90;;;4.00;;
4244;SDS011;2136;48.502;9.194;2023-05-29T14:04:30;3.70;;;3.30;;
4244;SDS011;2136;48.502;9.194;2023-05-29T14:06:57;4.80;;;3.60;;
4244;SDS011;2136;48.502;9.194;2023-05-29T14:09:24;3.60;;;3.00;;
4244;SDS011;2136;48.502;9.194;2023-05-29T14:11:53;4.77;;;3.47;;
4244;SDS011;2136;48.502;9.194;2023-05-29T14:14:20;5.67;;;3.50;;
4244;SDS011;2136;48.502;9.194;2023-05-29T14:16:48;5.53;;;3.37;;
4244;SDS011;2136;48.502;9.194;2023-05-29T14:19:16;3.70;;;2.80;;
4244;SDS011;2136;48.502;9.194;2023-05-29T14:21:43;9.90;;;3.10;;
4244;SDS011;2136;48.502;9.194;2023-05-29T14:24:10;4.57;;;3.67;;
4244;SDS011;2136;48.502;9.194;2023-05-29T14:26:38;4.57;;;3.60;;
4244;SDS011;2136;48.502;9.194;2023-05-29T14:29:05;3.50;;;3.17;;
4244;SDS011;2136;48.502;9.194;2023-05-29T14:31:32;5.47;;;3.40;;
4244;SDS011;2136;48.502;9.194;2023-05-29T14:33:59;4.23;;;3.63;;
4244;SDS011;2136;48.502;9.194;2023-05-29T14:36:27;4.70;;;3.50;;
4244;SDS011;2136;48.502;9.194;2023-05-29T14:38:54;4.77;;;3.23;;
4244;SDS011;2136;48.502;9.194;2023-05-29T14:41:21;4.00;;;2.87;;
4244;SDS011;2136;48.502;9.194;2023-05-29T14:43:49;5.03;;;3.70;;
4244;SDS011;2136;48.502;9.194;2023-05-29T14:46:16;4.23;;;3.63;;
4244;SDS011;2136;48.502;9.194;2023-05-29T14:48:43;5.67;;;3.70;;
4244;SDS011;2136;48.502;9.194;2023-05-29T14:51:14;3.90;;;3.50;;
4244;SDS011;2136;48.502;9.194;2023-05-29T14:53:44;4.73;;;3.63;;
4244;SDS011;2136;48.502;9.194;2023-05-29T14:56:11;6.67;;;4.23;;
4244;SDS011;2136;48.502;9.194;2023-05-29T14:58:37;6.83;;;4.10;;
4244;SDS011;2136;48.502;9.194;2023-05-29T15:01:06;3.57;;;3.27;;
4244;SDS011;2136;48.502;9.194;2023-05-29T15:03:33;4.75;;;3.97;;
4244;SDS011;2136;48.502;9.194;2023-05-29T15:06:00;5.40;;;3.63;;
4244;SDS011;2136;48.502;9.194;2023-05-29T15:08:27;6.10;;;4.00;;
4244;SDS011;2136;48.502;9.194;2023-05-29T15:11:00;3.80;;;3.40;;
4244;SDS011;2136;48.502;9.194;2023-05-29T15:13:27;5.73;;;3.40;;
4244;SDS011;2136;48.502;9.194;2023-05-29T15:15:54;5.73;;;3.50;;
4244;SDS011;2136;48.502;9.194;2023-05-29T15:18:24;3.47;;;3.20;;
4244;SDS011;2136;48.502;9.194;2023-05-29T15:20:51;6.40;;;3.83;;
4244;SDS011;2136;48.502;9.194;2023-05-29T15:23:21;4.50;;;3.70;;
4244;SDS011;2136;48.502;9.194;2023-05-29T15:25:48;4.50;;;3.33;;